sensor_id;sensor_type;location;lat;lon;timestamp;temperature;humidity
11152;DHT22;5630;49.342;10.802;2022-08-19T00:01:26;20.80;99.90
11152;DHT22;5630;49.342;10.802;2022-08-19T00:03:52;20.70;99.90
11152;DHT22;5630;49.342;10.802;2022-08-19T00:06:18;20.80;99.90
11152;DHT22;5630;49.342;10.802;2022-08-19T00:08:44;20.80;99.90
11152;DHT22;5630;49.342;10.802;2022-08-19T00:11:10;20.80;99.90
11152;DHT22;5630;49.342;10.802;2022-08-19T00:13:36;20.80;99.90
11152;DHT22;5630;49.342;10.802;2022-08-19T00:16:03;20.80;99.90
11152;DHT22;5630;49.342;10.802;2022-08-19T00:18:31;20.80;99.90
11152;DHT22;5630;49.342;10.802;2022-08-19T00:20:57;20.80;99.90
11152;DHT22;5630;49.342;10.802;2022-08-19T00:23:23;20.80;99.90
11152;DHT22;5630;49.342;10.802;2022-08-19T00:25:48;20.70;99.90
11152;DHT22;5630;49.342;10.802;2022-08-19T00:28:14;20.70;99.90
11152;DHT22;5630;49.342;10.802;2022-08-19T00:30:39;20.60;99.90
11152;DHT22;5630;49.342;10.802;2022-08-19T00:33:06;20.60;99.90
11152;DHT22;5630;49.342;10.802;2022-08-19T00:35:33;20.60;99.90
11152;DHT22;5630;49.342;10.802;2022-08-19T00:37:59;20.50;99.90
11152;DHT22;5630;49.342;10.802;2022-08-19T00:40:25;20.40;99.90
11152;DHT22;5630;49.342;10.802;2022-08-19T00:42:51;20.40;99.90
11152;DHT22;5630;49.342;10.802;2022-08-19T00:45:25;20.40;99.90
11152;DHT22;5630;49.342;10.802;2022-08-19T00:47:51;20.40;99.90
11152;DHT22;5630;49.342;10.802;2022-08-19T00:50:19;20.40;99.90
11152;DHT22;5630;49.342;10.802;2022-08-19T00:52:48;20.40;99.90
11152;DHT22;5630;49.342;10.802;2022-08-19T00:55:19;20.40;99.90
11152;DHT22;5630;49.342;10.802;2022-08-19T00:57:54;20.40;99.90
11152;DHT22;5630;49.342;10.802;2022-08-19T01:00:21;20.40;99.90
11152;DHT22;5630;49.342;10.802;2022-08-19T01:02:47;20.40;99.90
11152;DHT22;5630;49.342;10.802;2022-08-19T01:05:18;20.40;99.90
11152;DHT22;5630;49.342;10.802;2022-08-19T01:07:47;20.40;99.90
11152;DHT22;5630;49.342;10.802;2022-08-19T01:10:16;20.40;99.90
11152;DHT22;5630;49.342;10.802;2022-08-19T01:12:44;20.40;99.90
11152;DHT22;5630;49.342;10.802;2022-08-19T01:15:14;20.40;99.90
11152;DHT22;5630;49.342;10.802;2022-08-19T01:17:42;20.40;99.90
11152;DHT22;5630;49.342;10.802;2022-08-19T01:20:14;20.50;99.90
11152;DHT22;5630;49.342;10.802;2022-08-19T01:22:45;20.50;99.90
11152;DHT22;5630;49.342;10.802;2022-08-19T01:25:15;20.50;99.90
11152;DHT22;5630;49.342;10.802;2022-08-19T01:27:46;20.50;99.90
11152;DHT22;5630;49.342;10.802;2022-08-19T01:30:23;20.40;99.90
11152;DHT22;5630;49.342;10.802;2022-08-19T01:32:50;20.40;99.90
11152;DHT22;5630;49.342;10.802;2022-08-19T01:35:16;20.40;99.90
11152;DHT22;5630;49.342;10.802;2022-08-19T01:37:49;20.40;99.90
11152;DHT22;5630;49.342;10.802;2022-08-19T01:40:15;20.40;99.90
11152;DHT22;5630;49.342;10.802;2022-08-19T01:42:41;20.30;99.90
11152;DHT22;5630;49.342;10.802;2022-08-19T01:45:08;20.30;99.90
11152;DHT22;5630;49.342;10.802;2022-08-19T01:47:36;20.30;99.90
11152;DHT22;5630;49.342;10.802;2022-08-19T01:50:04;20.40;99.90
11152;DHT22;5630;49.342;10.802;2022-08-19T01:52:30;20.40;99.90
11152;DHT22;5630;49.342;10.802;2022-08-19T01:54:56;20.40;99.90
11152;DHT22;5630;49.342;10.802;2022-08-19T01:57:22;20.40;99.90
11152;DHT22;5630;49.342;10.802;2022-08-19T01:59:47;20.50;99.90
11152;DHT22;5630;49.342;10.802;2022-08-19T02:02:13;20.50;99.90
11152;DHT22;5630;49.342;10.802;2022-08-19T02:04:39;20.40;99.90
11152;DHT22;5630;49.342;10.802;2022-08-19T02:07:06;20.30;99.90
11152;DHT22;5630;49.342;10.802;2022-08-19T02:09:34;20.40;99.90
11152;DHT22;5630;49.342;10.802;2022-08-19T02:12:00;20.30;99.90
11152;DHT22;5630;49.342;10.802;2022-08-19T02:14:25;20.30;99.90
11152;DHT22;5630;49.342;10.802;2022-08-19T02:16:51;20.40;99.90
11152;DHT22;5630;49.342;10.802;2022-08-19T02:19:16;20.30;99.90
11152;DHT22;5630;49.342;10.802;2022-08-19T02:21:42;20.20;99.90
11152;DHT22;5630;49.342;10.802;2022-08-19T02:24:09;20.30;99.90
11152;DHT22;5630;49.342;10.802;2022-08-19T02:26:35;20.20;99.90
11152;DHT22;5630;49.342;10.802;2022-08-19T02:29:00;20.30;99.90
11152;DHT22;5630;49.342;10.802;2022-08-19T02:31:26;20.30;99.90
11152;DHT22;5630;49.342;10.802;2022-08-19T02:33:53;20.30;99.90
11152;DHT22;5630;49.342;10.802;2022-08-19T02:36:19;20.30;99.90
11152;DHT22;5630;49.342;10.802;2022-08-19T02:38:45;20.30;99.90
11152;DHT22;5630;49.342;10.802;2022-08-19T02:41:20;20.30;99.90
11152;DHT22;5630;49.342;10.802;2022-08-19T02:43:47;20.30;99.90
11152;DHT22;5630;49.342;10.802;2022-08-19T02:46:20;20.30;99.90
11152;DHT22;5630;49.342;10.802;2022-08-19T02:48:51;20.30;99.90
11152;DHT22;5630;49.342;10.802;2022-08-19T02:51:25;20.30;99.90
11152;DHT22;5630;49.342;10.802;2022-08-19T02:53:52;20.30;99.90
11152;DHT22;5630;49.342;10.802;2022-08-19T02:56:20;20.30;99.90
11152;DHT22;5630;49.342;10.802;2022-08-19T02:58:46;20.20;99.90
11152;DHT22;5630;49.342;10.802;2022-08-19T03:01:26;20.20;99.90
11152;DHT22;5630;49.342;10.802;2022-08-19T03:03:52;20.30;99.90
11152;DHT22;5630;49.342;10.802;2022-08-19T03:06:18;20.20;99.90
11152;DHT22;5630;49.342;10.802;2022-08-19T03:08:46;20.20;99.90
11152;DHT22;5630;49.342;10.802;2022-08-19T03:11:30;20.20;99.90
11152;DHT22;5630;49.342;10.802;2022-08-19T03:13:56;20.10;99.90
11152;DHT22;5630;49.342;10.802;2022-08-19T03:16:25;20.10;99.90
11152;DHT22;5630;49.342;10.802;2022-08-19T03:18:53;20.10;99.90
11152;DHT22;5630;49.342;10.802;2022-08-19T03:21:25;20.10;99.90
11152;DHT22;5630;49.342;10.802;2022-08-19T03:23:54;20.10;99.90
11152;DHT22;5630;49.342;10.802;2022-08-19T03:26:20;20.10;99.90
11152;DHT22;5630;49.342;10.802;2022-08-19T03:28:46;20.10;99.90
11152;DHT22;5630;49.342;10.802;2022-08-19T03:31:15;20.10;99.90
11152;DHT22;5630;49.342;10.802;2022-08-19T03:33:41;20.10;99.90
11152;DHT22;5630;49.342;10.802;2022-08-19T03:36:13;20.10;99.90
11152;DHT22;5630;49.342;10.802;2022-08-19T03:38:48;20.00;99.90
11152;DHT22;5630;49.342;10.802;2022-08-19T03:41:17;20.00;99.90
11152;DHT22;5630;49.342;10.802;2022-08-19T03:43:44;20.00;99.90
11152;DHT22;5630;49.342;10.802;2022-08-19T03:46:13;20.00;99.90
11152;DHT22;5630;49.342;10.802;2022-08-19T03:48:40;20.00;99.90
11152;DHT22;5630;49.342;10.802;2022-08-19T03:51:08;20.00;99.90
11152;DHT22;5630;49.342;10.802;2022-08-19T03:53:40;20.00;99.90
11152;DHT22;5630;49.342;10.802;2022-08-19T03:56:09;20.10;99.90
11152;DHT22;5630;49.342;10.802;2022-08-19T03:58:35;20.00;99.90
11152;DHT22;5630;49.342;10.802;2022-08-19T04:01:00;20.00;99.90
11152;DHT22;5630;49.342;10.802;2022-08-19T04:03:26;20.00;99.90
11152;DHT22;5630;49.342;10.802;2022-08-19T04:05:53;20.00;99.90
11152;DHT22;5630;49.342;10.802;2022-08-19T04:08:19;20.00;99.90
11152;DHT22;5630;49.342;10.802;2022-08-19T04:10:47;19.90;99.90
11152;DHT22;5630;49.342;10.802;2022-08-19T04:13:17;19.90;99.90
11152;DHT22;5630;49.342;10.802;2022-08-19T04:15:45;19.90;99.90
11152;DHT22;5630;49.342;10.802;2022-08-19T04:18:11;19.90;99.90
11152;DHT22;5630;49.342;10.802;2022-08-19T04:20:42;19.90;99.90
11152;DHT22;5630;49.342;10.802;2022-08-19T04:23:07;19.90;99.90
11152;DHT22;5630;49.342;10.802;2022-08-19T04:25:38;19.80;99.90
11152;DHT22;5630;49.342;10.802;2022-08-19T04:28:05;19.80;99.90
11152;DHT22;5630;49.342;10.802;2022-08-19T04:30:30;19.90;99.90
11152;DHT22;5630;49.342;10.802;2022-08-19T04:32:56;19.90;99.90
11152;DHT22;5630;49.342;10.802;2022-08-19T04:35:21;19.90;99.90
11152;DHT22;5630;49.342;10.802;2022-08-19T04:37:47;19.90;99.90
11152;DHT22;5630;49.342;10.802;2022-08-19T04:40:13;19.90;99.90
11152;DHT22;5630;49.342;10.802;2022-08-19T04:42:57;19.90;99.90
11152;DHT22;5630;49.342;10.802;2022-08-19T04:45:22;19.90;99.90
11152;DHT22;5630;49.342;10.802;2022-08-19T04:47:48;19.80;99.90
11152;DHT22;5630;49.342;10.802;2022-08-19T04:50:14;19.90;99.90
11152;DHT22;5630;49.342;10.802;2022-08-19T04:52:40;19.90;99.90
11152;DHT22;5630;49.342;10.802;2022-08-19T04:55:09;20.00;99.90
11152;DHT22;5630;49.342;10.802;2022-08-19T04:57:36;19.90;99.90
11152;DHT22;5630;49.342;10.802;2022-08-19T05:00:06;19.90;99.90
11152;DHT22;5630;49.342;10.802;2022-08-19T05:02:32;19.90;99.90
11152;DHT22;5630;49.342;10.802;2022-08-19T05:04:58;20.00;99.90
11152;DHT22;5630;49.342;10.802;2022-08-19T05:07:26;20.00;99.90
11152;DHT22;5630;49.342;10.802;2022-08-19T05:09:52;20.00;99.90
11152;DHT22;5630;49.342;10.802;2022-08-19T05:12:18;20.00;99.90
11152;DHT22;5630;49.342;10.802;2022-08-19T05:14:45;20.00;99.90
11152;DHT22;5630;49.342;10.802;2022-08-19T05:17:12;20.00;99.90
11152;DHT22;5630;49.342;10.802;2022-08-19T05:19:38;20.00;99.90
11152;DHT22;5630;49.342;10.802;2022-08-19T05:22:22;20.10;99.90
11152;DHT22;5630;49.342;10.802;2022-08-19T05:25:08;20.10;99.90
11152;DHT22;5630;49.342;10.802;2022-08-19T05:27:35;20.10;99.90
11152;DHT22;5630;49.342;10.802;2022-08-19T05:30:01;20.20;99.90
11152;DHT22;5630;49.342;10.802;2022-08-19T05:32:27;20.10;99.90
11152;DHT22;5630;49.342;10.802;2022-08-19T05:34:53;20.20;99.90
11152;DHT22;5630;49.342;10.802;2022-08-19T05:37:18;20.40;99.90
11152;DHT22;5630;49.342;10.802;2022-08-19T05:39:44;20.50;99.90
11152;DHT22;5630;49.342;10.802;2022-08-19T05:42:11;20.60;99.90
11152;DHT22;5630;49.342;10.802;2022-08-19T05:44:40;20.70;99.90
11152;DHT22;5630;49.342;10.802;2022-08-19T05:47:11;20.80;99.90
11152;DHT22;5630;49.342;10.802;2022-08-19T05:49:37;21.00;99.90
11152;DHT22;5630;49.342;10.802;2022-08-19T05:52:05;21.10;99.90
11152;DHT22;5630;49.342;10.802;2022-08-19T05:54:31;21.20;99.90
11152;DHT22;5630;49.342;10.802;2022-08-19T05:56:57;21.30;99.90
11152;DHT22;5630;49.342;10.802;2022-08-19T05:59:22;21.30;99.90
11152;DHT22;5630;49.342;10.802;2022-08-19T06:01:50;21.40;99.90
11152;DHT22;5630;49.342;10.802;2022-08-19T06:04:17;21.50;99.90
11152;DHT22;5630;49.342;10.802;2022-08-19T06:06:45;21.40;99.90
11152;DHT22;5630;49.342;10.802;2022-08-19T06:09:12;21.40;99.90
11152;DHT22;5630;49.342;10.802;2022-08-19T06:11:42;21.40;99.90
11152;DHT22;5630;49.342;10.802;2022-08-19T06:14:11;21.40;99.90
11152;DHT22;5630;49.342;10.802;2022-08-19T06:16:38;21.40;99.90
11152;DHT22;5630;49.342;10.802;2022-08-19T06:19:07;21.30;99.90
11152;DHT22;5630;49.342;10.802;2022-08-19T06:21:34;21.30;99.90
11152;DHT22;5630;49.342;10.802;2022-08-19T06:24:03;21.20;99.90
11152;DHT22;5630;49.342;10.802;2022-08-19T06:26:29;21.30;99.90
11152;DHT22;5630;49.342;10.802;2022-08-19T06:28:54;21.40;99.90
11152;DHT22;5630;49.342;10.802;2022-08-19T06:31:25;21.40;99.90
11152;DHT22;5630;49.342;10.802;2022-08-19T06:33:52;21.40;99.90
11152;DHT22;5630;49.342;10.802;2022-08-19T06:38:43;21.20;99.90
11152;DHT22;5630;49.342;10.802;2022-08-19T06:41:08;21.10;99.90
11152;DHT22;5630;49.342;10.802;2022-08-19T06:43:35;21.10;99.90
11152;DHT22;5630;49.342;10.802;2022-08-19T06:46:02;21.10;99.90
11152;DHT22;5630;49.342;10.802;2022-08-19T06:48:29;21.20;99.90
11152;DHT22;5630;49.342;10.802;2022-08-19T06:50:55;21.40;99.90
11152;DHT22;5630;49.342;10.802;2022-08-19T06:53:21;21.50;99.90
11152;DHT22;5630;49.342;10.802;2022-08-19T06:55:47;21.50;99.90
11152;DHT22;5630;49.342;10.802;2022-08-19T06:58:13;21.40;99.90
11152;DHT22;5630;49.342;10.802;2022-08-19T07:00:39;21.50;99.90
11152;DHT22;5630;49.342;10.802;2022-08-19T07:03:05;21.60;99.90
11152;DHT22;5630;49.342;10.802;2022-08-19T07:05:31;21.60;99.90
11152;DHT22;5630;49.342;10.802;2022-08-19T07:07:56;21.50;99.90
11152;DHT22;5630;49.342;10.802;2022-08-19T07:10:23;21.50;99.90
11152;DHT22;5630;49.342;10.802;2022-08-19T07:12:48;21.60;99.90
11152;DHT22;5630;49.342;10.802;2022-08-19T07:15:15;21.70;99.90
11152;DHT22;5630;49.342;10.802;2022-08-19T07:17:41;21.60;99.90
11152;DHT22;5630;49.342;10.802;2022-08-19T07:20:09;21.70;99.90
11152;DHT22;5630;49.342;10.802;2022-08-19T07:22:39;21.80;99.90
11152;DHT22;5630;49.342;10.802;2022-08-19T07:25:06;21.80;99.90
11152;DHT22;5630;49.342;10.802;2022-08-19T07:27:32;21.90;99.90
11152;DHT22;5630;49.342;10.802;2022-08-19T07:29:59;21.90;99.90
11152;DHT22;5630;49.342;10.802;2022-08-19T07:32:25;21.80;99.90
11152;DHT22;5630;49.342;10.802;2022-08-19T07:34:55;21.80;99.90
11152;DHT22;5630;49.342;10.802;2022-08-19T07:37:20;21.40;99.90
11152;DHT22;5630;49.342;10.802;2022-08-19T07:39:46;21.50;99.90
11152;DHT22;5630;49.342;10.802;2022-08-19T07:42:12;21.50;99.90
11152;DHT22;5630;49.342;10.802;2022-08-19T07:44:40;21.40;99.90
11152;DHT22;5630;49.342;10.802;2022-08-19T07:47:06;21.50;99.90
11152;DHT22;5630;49.342;10.802;2022-08-19T07:49:32;21.40;99.90
11152;DHT22;5630;49.342;10.802;2022-08-19T07:52:00;21.40;99.90
11152;DHT22;5630;49.342;10.802;2022-08-19T07:54:30;21.40;99.90
11152;DHT22;5630;49.342;10.802;2022-08-19T07:56:56;21.40;99.90
11152;DHT22;5630;49.342;10.802;2022-08-19T07:59:23;21.30;99.90
11152;DHT22;5630;49.342;10.802;2022-08-19T08:01:48;21.30;99.90
11152;DHT22;5630;49.342;10.802;2022-08-19T08:04:16;21.20;99.90
11152;DHT22;5630;49.342;10.802;2022-08-19T08:07:00;21.00;99.90
11152;DHT22;5630;49.342;10.802;2022-08-19T08:09:44;21.00;99.90
11152;DHT22;5630;49.342;10.802;2022-08-19T08:12:20;20.90;99.90
11152;DHT22;5630;49.342;10.802;2022-08-19T08:14:50;20.80;99.90
11152;DHT22;5630;49.342;10.802;2022-08-19T08:17:20;20.80;99.90
11152;DHT22;5630;49.342;10.802;2022-08-19T08:19:46;20.70;99.90
11152;DHT22;5630;49.342;10.802;2022-08-19T08:22:15;20.70;99.90
11152;DHT22;5630;49.342;10.802;2022-08-19T08:25:03;20.60;99.90
11152;DHT22;5630;49.342;10.802;2022-08-19T08:27:29;20.70;99.90
11152;DHT22;5630;49.342;10.802;2022-08-19T08:29:56;20.70;99.90
11152;DHT22;5630;49.342;10.802;2022-08-19T08:32:22;20.80;99.90
11152;DHT22;5630;49.342;10.802;2022-08-19T08:34:48;20.90;99.90
11152;DHT22;5630;49.342;10.802;2022-08-19T08:37:13;20.90;99.90
11152;DHT22;5630;49.342;10.802;2022-08-19T08:39:39;21.00;99.90
11152;DHT22;5630;49.342;10.802;2022-08-19T08:42:22;21.00;99.90
11152;DHT22;5630;49.342;10.802;2022-08-19T08:44:58;20.90;99.90
11152;DHT22;5630;49.342;10.802;2022-08-19T08:47:25;20.90;99.90
11152;DHT22;5630;49.342;10.802;2022-08-19T08:49:59;21.10;99.90
11152;DHT22;5630;49.342;10.802;2022-08-19T08:52:30;21.20;99.90
11152;DHT22;5630;49.342;10.802;2022-08-19T08:55:05;21.30;99.90
11152;DHT22;5630;49.342;10.802;2022-08-19T09:00:06;21.30;99.90
11152;DHT22;5630;49.342;10.802;2022-08-19T09:02:33;21.30;99.90
11152;DHT22;5630;49.342;10.802;2022-08-19T09:04:58;21.30;99.90
11152;DHT22;5630;49.342;10.802;2022-08-19T09:10:43;21.20;99.90
11152;DHT22;5630;49.342;10.802;2022-08-19T09:13:37;21.20;99.90
11152;DHT22;5630;49.342;10.802;2022-08-19T09:16:18;21.10;99.90
11152;DHT22;5630;49.342;10.802;2022-08-19T09:18:48;21.10;99.90
11152;DHT22;5630;49.342;10.802;2022-08-19T09:21:17;21.10;99.90
11152;DHT22;5630;49.342;10.802;2022-08-19T09:23:42;21.20;99.90
11152;DHT22;5630;49.342;10.802;2022-08-19T09:26:13;21.00;99.90
11152;DHT22;5630;49.342;10.802;2022-08-19T09:28:44;21.10;99.90
11152;DHT22;5630;49.342;10.802;2022-08-19T09:31:11;21.10;99.90
11152;DHT22;5630;49.342;10.802;2022-08-19T09:33:38;21.10;99.90
11152;DHT22;5630;49.342;10.802;2022-08-19T09:36:06;21.00;99.90
11152;DHT22;5630;49.342;10.802;2022-08-19T09:38:33;21.10;99.90
11152;DHT22;5630;49.342;10.802;2022-08-19T09:41:06;21.10;99.90
11152;DHT22;5630;49.342;10.802;2022-08-19T09:43:33;21.20;99.90
11152;DHT22;5630;49.342;10.802;2022-08-19T09:46:03;21.30;99.90
11152;DHT22;5630;49.342;10.802;2022-08-19T09:48:31;21.30;99.90
11152;DHT22;5630;49.342;10.802;2022-08-19T09:51:09;21.30;99.90
11152;DHT22;5630;49.342;10.802;2022-08-19T09:53:36;21.20;99.90
11152;DHT22;5630;49.342;10.802;2022-08-19T09:56:02;21.10;99.90
11152;DHT22;5630;49.342;10.802;2022-08-19T09:58:28;21.10;99.90
11152;DHT22;5630;49.342;10.802;2022-08-19T10:00:57;21.10;99.90
11152;DHT22;5630;49.342;10.802;2022-08-19T10:03:24;21.20;99.90
11152;DHT22;5630;49.342;10.802;2022-08-19T10:05:49;21.20;99.90
11152;DHT22;5630;49.342;10.802;2022-08-19T10:08:17;21.20;99.90
11152;DHT22;5630;49.342;10.802;2022-08-19T10:10:44;21.20;99.90
11152;DHT22;5630;49.342;10.802;2022-08-19T10:13:10;21.10;99.90
11152;DHT22;5630;49.342;10.802;2022-08-19T10:15:36;20.90;99.90
11152;DHT22;5630;49.342;10.802;2022-08-19T10:18:04;20.90;99.90
11152;DHT22;5630;49.342;10.802;2022-08-19T10:20:30;20.90;99.90
11152;DHT22;5630;49.342;10.802;2022-08-19T10:22:56;20.90;99.90
11152;DHT22;5630;49.342;10.802;2022-08-19T10:25:21;20.80;99.90
11152;DHT22;5630;49.342;10.802;2022-08-19T10:27:47;20.80;99.90
11152;DHT22;5630;49.342;10.802;2022-08-19T10:30:13;20.80;99.90
11152;DHT22;5630;49.342;10.802;2022-08-19T10:32:38;20.80;99.90
11152;DHT22;5630;49.342;10.802;2022-08-19T10:35:05;20.80;99.90
11152;DHT22;5630;49.342;10.802;2022-08-19T10:37:36;20.80;99.90
11152;DHT22;5630;49.342;10.802;2022-08-19T10:40:05;20.90;99.90
11152;DHT22;5630;49.342;10.802;2022-08-19T10:42:33;20.90;99.90
11152;DHT22;5630;49.342;10.802;2022-08-19T10:44:58;20.90;99.90
11152;DHT22;5630;49.342;10.802;2022-08-19T10:47:24;20.90;99.90
11152;DHT22;5630;49.342;10.802;2022-08-19T10:49:49;20.90;99.90
11152;DHT22;5630;49.342;10.802;2022-08-19T10:52:33;20.90;99.90
11152;DHT22;5630;49.342;10.802;2022-08-19T10:55:04;20.80;99.90
11152;DHT22;5630;49.342;10.802;2022-08-19T10:57:48;20.80;99.90
11152;DHT22;5630;49.342;10.802;2022-08-19T11:00:14;20.80;99.90
11152;DHT22;5630;49.342;10.802;2022-08-19T11:02:40;20.80;99.90
11152;DHT22;5630;49.342;10.802;2022-08-19T11:05:08;20.80;99.90
11152;DHT22;5630;49.342;10.802;2022-08-19T11:07:37;20.80;99.90
11152;DHT22;5630;49.342;10.802;2022-08-19T11:10:03;20.70;99.90
11152;DHT22;5630;49.342;10.802;2022-08-19T11:12:29;20.70;99.90
11152;DHT22;5630;49.342;10.802;2022-08-19T11:14:54;20.70;99.90
11152;DHT22;5630;49.342;10.802;2022-08-19T11:17:20;20.80;99.90
11152;DHT22;5630;49.342;10.802;2022-08-19T11:19:49;20.70;99.90
11152;DHT22;5630;49.342;10.802;2022-08-19T11:22:14;20.80;99.90
11152;DHT22;5630;49.342;10.802;2022-08-19T11:24:40;20.70;99.90
11152;DHT22;5630;49.342;10.802;2022-08-19T11:27:08;20.70;99.90
11152;DHT22;5630;49.342;10.802;2022-08-19T11:29:37;20.70;99.90
11152;DHT22;5630;49.342;10.802;2022-08-19T11:32:09;20.70;99.90
11152;DHT22;5630;49.342;10.802;2022-08-19T11:34:35;20.70;99.90
11152;DHT22;5630;49.342;10.802;2022-08-19T11:37:02;20.80;99.90
11152;DHT22;5630;49.342;10.802;2022-08-19T11:39:30;20.80;99.90
11152;DHT22;5630;49.342;10.802;2022-08-19T11:42:00;20.80;99.90
11152;DHT22;5630;49.342;10.802;2022-08-19T11:44:28;20.70;99.90
11152;DHT22;5630;49.342;10.802;2022-08-19T11:46:55;20.70;99.90
11152;DHT22;5630;49.342;10.802;2022-08-19T11:49:21;20.70;99.90
11152;DHT22;5630;49.342;10.802;2022-08-19T11:51:47;20.70;99.90
11152;DHT22;5630;49.342;10.802;2022-08-19T11:54:16;20.70;99.90
11152;DHT22;5630;49.342;10.802;2022-08-19T11:56:42;20.80;99.90
11152;DHT22;5630;49.342;10.802;2022-08-19T11:59:08;20.80;99.90
11152;DHT22;5630;49.342;10.802;2022-08-19T12:01:34;20.60;99.90
11152;DHT22;5630;49.342;10.802;2022-08-19T12:04:00;20.70;99.90
11152;DHT22;5630;49.342;10.802;2022-08-19T12:06:31;20.60;99.90
11152;DHT22;5630;49.342;10.802;2022-08-19T12:08:59;20.60;99.90
11152;DHT22;5630;49.342;10.802;2022-08-19T12:11:25;20.70;99.90
11152;DHT22;5630;49.342;10.802;2022-08-19T12:13:52;20.80;99.90
11152;DHT22;5630;49.342;10.802;2022-08-19T12:16:21;20.70;99.90
11152;DHT22;5630;49.342;10.802;2022-08-19T12:18:48;20.70;99.90
11152;DHT22;5630;49.342;10.802;2022-08-19T12:21:19;20.70;99.90
11152;DHT22;5630;49.342;10.802;2022-08-19T12:23:47;20.70;99.90
11152;DHT22;5630;49.342;10.802;2022-08-19T12:26:14;20.60;99.90
11152;DHT22;5630;49.342;10.802;2022-08-19T12:28:40;20.50;99.90
11152;DHT22;5630;49.342;10.802;2022-08-19T12:31:07;20.60;99.90
11152;DHT22;5630;49.342;10.802;2022-08-19T12:33:33;20.50;99.90
11152;DHT22;5630;49.342;10.802;2022-08-19T12:36:04;20.50;99.90
11152;DHT22;5630;49.342;10.802;2022-08-19T12:38:30;20.50;99.90
11152;DHT22;5630;49.342;10.802;2022-08-19T12:40:58;20.50;99.90
11152;DHT22;5630;49.342;10.802;2022-08-19T12:43:24;20.50;99.90
11152;DHT22;5630;49.342;10.802;2022-08-19T12:45:50;20.50;99.90
11152;DHT22;5630;49.342;10.802;2022-08-19T12:48:16;20.50;99.90
11152;DHT22;5630;49.342;10.802;2022-08-19T12:50:43;20.60;99.90
11152;DHT22;5630;49.342;10.802;2022-08-19T12:53:11;20.60;99.90
11152;DHT22;5630;49.342;10.802;2022-08-19T12:55:36;20.50;99.90
11152;DHT22;5630;49.342;10.802;2022-08-19T12:58:02;20.50;99.90
11152;DHT22;5630;49.342;10.802;2022-08-19T13:00:28;20.50;99.90
11152;DHT22;5630;49.342;10.802;2022-08-19T13:02:55;20.50;99.90
11152;DHT22;5630;49.342;10.802;2022-08-19T13:05:24;20.50;99.90
11152;DHT22;5630;49.342;10.802;2022-08-19T13:07:52;20.40;99.90
11152;DHT22;5630;49.342;10.802;2022-08-19T13:10:20;20.40;99.90
11152;DHT22;5630;49.342;10.802;2022-08-19T13:12:49;20.40;99.90
11152;DHT22;5630;49.342;10.802;2022-08-19T13:15:16;20.30;99.90
11152;DHT22;5630;49.342;10.802;2022-08-19T13:17:46;20.20;99.90
11152;DHT22;5630;49.342;10.802;2022-08-19T13:20:14;20.10;99.90
11152;DHT22;5630;49.342;10.802;2022-08-19T13:22:40;20.10;99.90
11152;DHT22;5630;49.342;10.802;2022-08-19T13:25:07;20.10;99.90
11152;DHT22;5630;49.342;10.802;2022-08-19T13:27:33;20.00;99.90
11152;DHT22;5630;49.342;10.802;2022-08-19T13:29:59;20.00;99.90
11152;DHT22;5630;49.342;10.802;2022-08-19T13:32:43;19.80;99.90
11152;DHT22;5630;49.342;10.802;2022-08-19T13:35:27;19.70;99.90
11152;DHT22;5630;49.342;10.802;2022-08-19T13:37:53;19.60;99.90
11152;DHT22;5630;49.342;10.802;2022-08-19T13:40:21;19.60;99.90
11152;DHT22;5630;49.342;10.802;2022-08-19T13:42:50;19.60;99.90
11152;DHT22;5630;49.342;10.802;2022-08-19T13:45:22;19.60;99.90
11152;DHT22;5630;49.342;10.802;2022-08-19T13:47:53;19.70;99.90
11152;DHT22;5630;49.342;10.802;2022-08-19T13:50:22;19.80;99.90
11152;DHT22;5630;49.342;10.802;2022-08-19T13:52:48;19.80;99.90
11152;DHT22;5630;49.342;10.802;2022-08-19T13:55:15;19.80;99.90
11152;DHT22;5630;49.342;10.802;2022-08-19T13:57:41;19.80;99.90
11152;DHT22;5630;49.342;10.802;2022-08-19T14:00:14;19.80;99.90
11152;DHT22;5630;49.342;10.802;2022-08-19T14:02:42;19.80;99.90
11152;DHT22;5630;49.342;10.802;2022-08-19T14:05:11;19.70;99.90
11152;DHT22;5630;49.342;10.802;2022-08-19T14:07:37;19.70;99.90
11152;DHT22;5630;49.342;10.802;2022-08-19T14:10:05;19.70;99.90
11152;DHT22;5630;49.342;10.802;2022-08-19T14:12:32;19.70;99.90
11152;DHT22;5630;49.342;10.802;2022-08-19T14:14:58;19.80;99.90
11152;DHT22;5630;49.342;10.802;2022-08-19T14:17:23;19.70;99.90
11152;DHT22;5630;49.342;10.802;2022-08-19T14:19:55;19.70;99.90
11152;DHT22;5630;49.342;10.802;2022-08-19T14:22:21;19.70;99.90
11152;DHT22;5630;49.342;10.802;2022-08-19T14:24:46;19.70;99.90
11152;DHT22;5630;49.342;10.802;2022-08-19T14:27:13;19.60;99.90
11152;DHT22;5630;49.342;10.802;2022-08-19T14:29:38;19.60;99.90
11152;DHT22;5630;49.342;10.802;2022-08-19T14:32:04;19.70;99.90
11152;DHT22;5630;49.342;10.802;2022-08-19T14:34:30;19.60;99.90
11152;DHT22;5630;49.342;10.802;2022-08-19T14:36:57;19.60;99.90
11152;DHT22;5630;49.342;10.802;2022-08-19T14:39:23;19.40;99.90
11152;DHT22;5630;49.342;10.802;2022-08-19T14:41:48;19.30;99.90
11152;DHT22;5630;49.342;10.802;2022-08-19T14:44:14;19.40;99.90
11152;DHT22;5630;49.342;10.802;2022-08-19T14:46:40;19.30;99.90
11152;DHT22;5630;49.342;10.802;2022-08-19T14:49:06;19.30;99.90
11152;DHT22;5630;49.342;10.802;2022-08-19T14:51:32;19.20;99.90
11152;DHT22;5630;49.342;10.802;2022-08-19T14:53:58;19.10;99.90
11152;DHT22;5630;49.342;10.802;2022-08-19T14:56:28;18.90;99.90
11152;DHT22;5630;49.342;10.802;2022-08-19T14:58:56;18.80;99.90
11152;DHT22;5630;49.342;10.802;2022-08-19T15:01:24;18.70;99.90
11152;DHT22;5630;49.342;10.802;2022-08-19T15:03:50;18.70;99.90
11152;DHT22;5630;49.342;10.802;2022-08-19T15:06:18;18.60;99.90
11152;DHT22;5630;49.342;10.802;2022-08-19T15:08:44;18.60;99.90
11152;DHT22;5630;49.342;10.802;2022-08-19T15:11:15;18.50;99.90
11152;DHT22;5630;49.342;10.802;2022-08-19T15:13:43;18.50;99.90
11152;DHT22;5630;49.342;10.802;2022-08-19T15:16:10;18.50;99.90
11152;DHT22;5630;49.342;10.802;2022-08-19T15:18:36;18.50;99.90
11152;DHT22;5630;49.342;10.802;2022-08-19T15:21:02;18.50;99.90
11152;DHT22;5630;49.342;10.802;2022-08-19T15:23:28;18.60;99.90
11152;DHT22;5630;49.342;10.802;2022-08-19T15:25:54;18.60;99.90
11152;DHT22;5630;49.342;10.802;2022-08-19T15:28:24;18.60;99.90
11152;DHT22;5630;49.342;10.802;2022-08-19T15:30:51;18.70;99.90
11152;DHT22;5630;49.342;10.802;2022-08-19T15:33:17;18.70;99.90
11152;DHT22;5630;49.342;10.802;2022-08-19T15:35:46;18.70;99.90
11152;DHT22;5630;49.342;10.802;2022-08-19T15:38:13;18.80;99.90
11152;DHT22;5630;49.342;10.802;2022-08-19T15:40:40;18.70;99.90
11152;DHT22;5630;49.342;10.802;2022-08-19T15:43:06;18.80;99.90